createdAt,value
2017-11-08T00:01:52.493Z,19.23
2017-11-08T00:04:20.080Z,19.90
2017-11-08T00:06:47.656Z,19.00
2017-11-08T00:09:15.227Z,18.40
2017-11-08T00:11:42.790Z,19.15
2017-11-08T00:14:11.974Z,19.87
2017-11-08T00:16:39.608Z,16.48
2017-11-08T00:19:07.201Z,19.20
2017-11-08T00:21:40.489Z,17.42
2017-11-08T00:24:12.623Z,18.37
2017-11-08T00:26:40.230Z,17.60
2017-11-08T00:29:07.789Z,17.02
2017-11-08T00:31:36.067Z,17.65
2017-11-08T00:34:03.650Z,17.15
2017-11-08T00:36:31.230Z,14.45
2017-11-08T00:38:59.951Z,16.48
2017-11-08T00:41:27.531Z,15.20
2017-11-08T00:43:55.097Z,16.87
2017-11-08T00:46:22.663Z,15.93
2017-11-08T00:48:50.276Z,16.87
2017-11-08T00:51:21.039Z,14.30
2017-11-08T00:53:48.598Z,13.77
2017-11-08T00:56:17.052Z,11.50
2017-11-08T00:58:44.645Z,11.27
2017-11-08T01:01:13.108Z,9.65
2017-11-08T01:03:41.472Z,9.27
2017-11-08T01:06:09.823Z,9.25
2017-11-08T01:08:37.415Z,8.23
2017-11-08T01:11:04.986Z,7.57
2017-11-08T01:13:32.621Z,8.75
2017-11-08T01:16:00.208Z,8.23
2017-11-08T01:18:27.792Z,8.73
2017-11-08T01:20:55.403Z,8.00
2017-11-08T01:23:23.020Z,6.40
2017-11-08T01:25:51.692Z,7.03
2017-11-08T01:28:19.305Z,6.22
2017-11-08T01:30:47.645Z,5.82
2017-11-08T01:33:15.258Z,5.95
2017-11-08T01:35:43.630Z,5.20
2017-11-08T01:38:12.890Z,5.53
2017-11-08T01:40:43.108Z,5.47
2017-11-08T01:43:11.646Z,5.25
2017-11-08T01:45:42.286Z,4.57
2017-11-08T01:48:10.602Z,3.90
2017-11-08T01:50:39.146Z,4.43
2017-11-08T01:53:07.458Z,3.70
2017-11-08T01:55:38.944Z,4.05
2017-11-08T01:58:06.521Z,4.10
2017-11-08T02:00:34.148Z,3.90
2017-11-08T02:03:01.743Z,3.65
2017-11-08T02:05:29.327Z,4.43
2017-11-08T02:07:56.961Z,4.28
2017-11-08T02:10:24.518Z,4.00
2017-11-08T02:12:52.116Z,4.15
2017-11-08T02:15:19.763Z,4.80
2017-11-08T02:17:51.652Z,4.03
2017-11-08T02:20:19.632Z,4.03
2017-11-08T02:22:47.306Z,4.28
2017-11-08T02:25:14.889Z,4.18
2017-11-08T02:27:42.471Z,4.78
2017-11-08T02:30:11.206Z,4.93
2017-11-08T02:32:45.422Z,4.10
2017-11-08T02:35:19.669Z,4.90
2017-11-08T02:37:48.038Z,4.75
2017-11-08T02:40:15.658Z,4.97
2017-11-08T02:42:43.242Z,5.43
2017-11-08T02:45:10.852Z,5.20
2017-11-08T02:47:39.187Z,4.97
2017-11-08T02:50:06.834Z,4.57
2017-11-08T02:52:34.386Z,5.03
2017-11-08T02:55:02.755Z,4.80
2017-11-08T02:57:31.781Z,4.30
2017-11-08T02:59:59.349Z,4.93
2017-11-08T03:02:29.544Z,5.43
2017-11-08T03:04:57.918Z,5.45
2017-11-08T03:07:25.488Z,4.50
2017-11-08T03:09:53.021Z,5.32
2017-11-08T03:12:21.308Z,6.03
2017-11-08T03:14:49.231Z,4.87
2017-11-08T03:17:16.865Z,4.95
2017-11-08T03:19:46.055Z,5.70
2017-11-08T03:22:14.049Z,5.22
2017-11-08T03:24:42.446Z,4.87
2017-11-08T03:27:10.205Z,5.55
2017-11-08T03:29:39.418Z,5.35
2017-11-08T03:32:07.730Z,5.22
2017-11-08T03:34:35.305Z,5.10
2017-11-08T03:37:03.287Z,6.25
2017-11-08T03:39:30.847Z,5.97
2017-11-08T03:41:59.214Z,5.57
2017-11-08T03:44:27.997Z,6.07
2017-11-08T03:46:55.631Z,5.30
2017-11-08T03:49:23.978Z,5.00
2017-11-08T03:51:51.611Z,5.22
2017-11-08T03:54:19.242Z,5.05
2017-11-08T03:56:47.179Z,4.62
2017-11-08T03:59:14.796Z,5.65
2017-11-08T04:01:43.136Z,4.97
2017-11-08T04:04:21.041Z,5.50
2017-11-08T04:06:48.727Z,5.50
2017-11-08T04:09:16.283Z,4.65
2017-11-08T04:11:43.834Z,5.40
2017-11-08T04:14:11.482Z,6.30
2017-11-08T04:16:39.286Z,6.45
2017-11-08T04:19:07.639Z,5.85
2017-11-08T04:21:35.661Z,5.47
2017-11-08T04:24:04.072Z,5.87
2017-11-08T04:26:33.192Z,5.85
2017-11-08T04:29:00.796Z,6.12
2017-11-08T04:31:29.932Z,5.62
2017-11-08T04:33:57.497Z,6.05
2017-11-08T04:36:25.463Z,5.45
2017-11-08T04:38:53.543Z,6.05
2017-11-08T04:41:21.680Z,6.03
2017-11-08T04:43:49.268Z,7.10
2017-11-08T04:46:17.597Z,6.05
2017-11-08T04:48:45.265Z,6.70
2017-11-08T04:51:12.864Z,7.35
2017-11-08T04:53:40.594Z,7.25
2017-11-08T04:56:08.189Z,7.45
2017-11-08T04:58:35.797Z,7.70
2017-11-08T05:01:04.155Z,8.40
2017-11-08T05:03:32.599Z,7.93
2017-11-08T05:06:00.218Z,8.18
2017-11-08T05:08:28.574Z,8.85
2017-11-08T05:10:56.436Z,10.02
2017-11-08T05:13:24.226Z,10.40
2017-11-08T05:15:52.658Z,9.73
2017-11-08T05:18:20.245Z,9.95
2017-11-08T05:20:47.855Z,9.27
2017-11-08T05:23:16.311Z,10.70
2017-11-08T05:25:43.907Z,11.60
2017-11-08T05:28:13.160Z,10.75
2017-11-08T05:30:40.745Z,10.32
2017-11-08T05:33:08.307Z,10.82
2017-11-08T05:35:36.531Z,10.57
2017-11-08T05:38:06.723Z,11.77
2017-11-08T05:40:49.654Z,10.52
2017-11-08T05:43:17.187Z,11.32
2017-11-08T05:45:44.771Z,10.00
2017-11-08T05:48:17.658Z,9.15
2017-11-08T05:50:45.556Z,10.15
2017-11-08T05:53:13.893Z,9.20
2017-11-08T05:55:41.504Z,10.10
2017-11-08T05:58:09.838Z,9.70
2017-11-08T06:00:38.281Z,10.45
2017-11-08T06:03:06.595Z,9.95
2017-11-08T06:05:34.185Z,10.73
2017-11-08T06:08:01.760Z,11.93
2017-11-08T06:10:29.325Z,9.90
2017-11-08T06:12:58.509Z,10.98
2017-11-08T06:15:26.141Z,10.25
2017-11-08T06:17:53.736Z,12.48
2017-11-08T06:20:21.329Z,11.23
2017-11-08T06:22:49.629Z,9.95
2017-11-08T06:25:18.017Z,9.70
2017-11-08T06:27:45.555Z,9.15
2017-11-08T06:30:13.149Z,8.88
2017-11-08T06:32:40.863Z,10.32
2017-11-08T06:35:08.420Z,10.85
2017-11-08T06:37:36.019Z,9.77
2017-11-08T06:40:04.345Z,9.00
2017-11-08T06:42:31.904Z,9.05
2017-11-08T06:44:59.462Z,10.45
2017-11-08T06:47:27.024Z,9.85
2017-11-08T06:49:54.598Z,9.35
2017-11-08T06:52:22.259Z,9.95
2017-11-08T06:54:49.817Z,8.77
2017-11-08T06:57:22.207Z,9.25
2017-11-08T06:59:49.746Z,9.82
2017-11-08T07:02:19.076Z,8.95
2017-11-08T07:04:46.769Z,8.60
2017-11-08T07:07:14.349Z,9.10
2017-11-08T07:09:41.943Z,9.23
2017-11-08T07:12:10.287Z,10.38
2017-11-08T07:14:37.846Z,9.23
2017-11-08T07:17:05.403Z,9.25
2017-11-08T07:19:32.996Z,8.82
2017-11-08T07:22:00.557Z,9.98
2017-11-08T07:24:28.124Z,8.80
2017-11-08T07:26:55.689Z,10.55
2017-11-08T07:29:23.238Z,9.00
2017-11-08T07:31:50.826Z,7.82
2017-11-08T07:34:18.406Z,9.15
2017-11-08T07:36:46.759Z,9.00
2017-11-08T07:39:14.341Z,8.88
2017-11-08T07:41:41.915Z,8.48
2017-11-08T07:44:10.250Z,8.48
2017-11-08T07:46:38.817Z,8.50
2017-11-08T07:49:06.383Z,7.55
2017-11-08T07:51:33.944Z,7.70
2017-11-08T07:54:07.115Z,8.73
2017-11-08T07:56:35.501Z,8.95
2017-11-08T07:59:03.075Z,8.00
2017-11-08T08:01:30.658Z,8.52
2017-11-08T08:03:58.252Z,7.80
2017-11-08T08:06:25.823Z,7.57
2017-11-08T08:08:53.371Z,7.43
2017-11-08T08:11:20.913Z,7.70
2017-11-08T08:13:48.511Z,6.37
2017-11-08T08:16:16.081Z,7.32
2017-11-08T08:18:44.666Z,7.45
2017-11-08T08:21:16.068Z,7.97
2017-11-08T08:23:43.643Z,7.25
2017-11-08T08:26:11.215Z,6.90
2017-11-08T08:28:38.781Z,7.62
2017-11-08T08:31:06.372Z,8.00
2017-11-08T08:33:33.932Z,8.13
2017-11-08T08:36:01.518Z,7.50
2017-11-08T08:38:29.063Z,8.25
2017-11-08T08:40:56.616Z,7.95
2017-11-08T08:43:24.161Z,8.10
2017-11-08T08:45:51.927Z,8.13
2017-11-08T08:48:20.260Z,8.68
2017-11-08T08:50:48.596Z,8.30
2017-11-08T08:53:16.165Z,8.10
2017-11-08T08:55:43.743Z,7.50
2017-11-08T08:58:11.326Z,8.82
2017-11-08T09:00:38.862Z,8.27
2017-11-08T09:03:06.470Z,9.23
2017-11-08T09:05:34.043Z,9.60
2017-11-08T09:08:01.622Z,8.85
2017-11-08T09:10:29.959Z,9.27
2017-11-08T09:12:57.536Z,8.48
2017-11-08T09:15:25.121Z,7.65
2017-11-08T09:17:52.696Z,9.25
2017-11-08T09:20:27.009Z,7.90
2017-11-08T09:22:54.546Z,9.50
2017-11-08T09:25:22.143Z,9.90
2017-11-08T09:27:50.490Z,8.75
2017-11-08T09:30:18.066Z,9.75
2017-11-08T09:32:45.649Z,8.75
2017-11-08T09:35:13.208Z,7.90
2017-11-08T09:37:46.510Z,8.07
2017-11-08T09:40:14.841Z,8.63
2017-11-08T09:42:42.430Z,8.15
2017-11-08T09:45:11.892Z,7.95
2017-11-08T09:47:39.476Z,8.48
2017-11-08T09:50:07.014Z,8.38
2017-11-08T09:52:36.223Z,8.15
2017-11-08T09:55:03.787Z,8.32
2017-11-08T09:57:31.361Z,8.18
2017-11-08T09:59:58.916Z,8.85
2017-11-08T10:02:26.476Z,7.20
2017-11-08T10:04:54.818Z,6.93
2017-11-08T10:07:22.389Z,8.68
2017-11-08T10:09:52.073Z,9.20
2017-11-08T10:12:19.547Z,7.95
2017-11-08T10:14:47.098Z,8.45
2017-11-08T10:17:14.629Z,7.97
2017-11-08T10:19:42.197Z,8.30
2017-11-08T10:22:10.553Z,8.80
2017-11-08T10:24:44.606Z,8.70
2017-11-08T10:27:12.189Z,8.88
2017-11-08T10:29:39.721Z,8.35
2017-11-08T10:32:07.438Z,8.13
2017-11-08T10:34:34.994Z,8.57
2017-11-08T10:37:02.540Z,8.32
2017-11-08T10:39:30.391Z,8.52
2017-11-08T10:41:58.009Z,8.55
2017-11-08T10:44:25.580Z,10.25
2017-11-08T10:46:53.917Z,8.68
2017-11-08T10:49:21.479Z,9.15
2017-11-08T10:51:49.073Z,7.35
2017-11-08T10:54:18.493Z,7.28
2017-11-08T10:56:46.077Z,8.32
2017-11-08T10:59:19.376Z,8.02
2017-11-08T11:01:47.388Z,8.37
2017-11-08T11:04:15.020Z,9.05
2017-11-08T11:06:42.635Z,8.20
2017-11-08T11:09:11.065Z,8.65
2017-11-08T11:11:38.663Z,8.65
2017-11-08T11:14:11.070Z,9.63
2017-11-08T11:16:39.425Z,9.73
2017-11-08T11:19:12.917Z,8.80
2017-11-08T11:21:40.531Z,8.15
2017-11-08T11:24:12.906Z,7.87
2017-11-08T11:26:42.176Z,7.90
2017-11-08T11:29:10.607Z,8.20
2017-11-08T11:31:38.179Z,8.65
2017-11-08T11:34:05.776Z,8.60
2017-11-08T11:36:33.413Z,9.05
2017-11-08T11:39:01.003Z,7.18
2017-11-08T11:41:28.678Z,7.50
2017-11-08T11:43:56.279Z,6.85
2017-11-08T11:46:23.927Z,7.68
2017-11-08T11:48:54.269Z,8.57
2017-11-08T11:51:25.888Z,8.00
2017-11-08T11:53:53.469Z,7.28
2017-11-08T11:56:21.033Z,7.45
2017-11-08T11:58:48.596Z,7.30
2017-11-08T12:01:16.149Z,8.38
2017-11-08T12:03:43.744Z,7.37
2017-11-08T12:06:11.323Z,8.48
2017-11-08T12:08:38.911Z,7.45
2017-11-08T12:11:07.292Z,9.40
2017-11-08T12:13:34.853Z,7.15
2017-11-08T12:16:03.230Z,7.95
2017-11-08T12:18:31.588Z,7.55
2017-11-08T12:20:59.196Z,6.90
2017-11-08T12:23:27.548Z,7.75
2017-11-08T12:25:55.190Z,7.87
2017-11-08T12:28:23.534Z,7.97
2017-11-08T12:30:51.117Z,7.15
2017-11-08T12:33:18.698Z,6.97
2017-11-08T12:35:48.265Z,7.43
2017-11-08T12:38:16.594Z,7.25
2017-11-08T12:40:44.201Z,7.57
2017-11-08T12:43:13.740Z,8.05
2017-11-08T12:45:41.332Z,7.35
2017-11-08T12:48:09.410Z,7.18
2017-11-08T12:50:37.203Z,7.65
2017-11-08T12:53:04.815Z,7.35
2017-11-08T12:55:32.639Z,7.80
2017-11-08T12:58:00.249Z,7.62
2017-11-08T13:00:28.024Z,7.55
2017-11-08T13:02:55.856Z,6.97
2017-11-08T13:05:29.579Z,7.45
2017-11-08T13:07:57.896Z,7.18
2017-11-08T13:10:26.267Z,7.97
2017-11-08T13:12:54.002Z,7.37
2017-11-08T13:15:21.610Z,8.38
2017-11-08T13:17:49.243Z,8.05
2017-11-08T13:20:17.576Z,8.05
2017-11-08T13:22:45.176Z,7.72
2017-11-08T13:25:12.998Z,8.30
2017-11-08T13:27:40.656Z,8.13
2017-11-08T13:30:12.316Z,6.32
2017-11-08T13:32:44.719Z,7.30
2017-11-08T13:35:15.994Z,7.90
2017-11-08T13:37:47.873Z,8.10
2017-11-08T13:40:19.961Z,8.90
2017-11-08T13:42:52.307Z,7.05
2017-11-08T13:45:29.068Z,8.05
2017-11-08T13:48:01.657Z,8.27
2017-11-08T13:50:33.658Z,8.30
2017-11-08T13:53:06.781Z,7.60
2017-11-08T13:55:40.785Z,7.80
2017-11-08T13:58:11.709Z,8.50
2017-11-08T14:00:43.419Z,9.97
2017-11-08T14:03:14.981Z,9.45
2017-11-08T14:05:46.531Z,7.95
2017-11-08T14:08:18.573Z,9.18
2017-11-08T14:10:51.523Z,8.90
2017-11-08T14:13:26.750Z,9.23
2017-11-08T14:15:59.672Z,9.37
2017-11-08T14:18:27.253Z,8.52
2017-11-08T14:20:54.819Z,9.23
2017-11-08T14:23:22.376Z,8.18
2017-11-08T14:25:49.962Z,8.43
2017-11-08T14:28:17.527Z,8.75
2017-11-08T14:30:45.073Z,8.75
2017-11-08T14:33:12.679Z,9.77
2017-11-08T14:35:43.002Z,9.85
2017-11-08T14:38:11.376Z,9.13
2017-11-08T14:40:38.930Z,9.88
2017-11-08T14:43:06.567Z,9.85
2017-11-08T14:45:34.877Z,10.25
2017-11-08T14:48:02.445Z,9.57
2017-11-08T14:50:30.078Z,11.43
2017-11-08T14:56:06.898Z,10.27
2017-11-08T14:58:34.481Z,10.07
2017-11-08T15:01:02.053Z,10.20
2017-11-08T15:03:30.595Z,10.52
2017-11-08T15:05:58.190Z,9.80
2017-11-08T15:08:25.763Z,10.35
2017-11-08T15:10:58.168Z,9.93
2017-11-08T15:13:25.743Z,10.35
2017-11-08T15:15:53.281Z,11.05
2017-11-08T15:18:21.666Z,10.00
2017-11-08T15:20:50.014Z,10.60
2017-11-08T15:23:20.454Z,10.77
2017-11-08T15:25:48.101Z,10.68
2017-11-08T15:28:15.681Z,10.85
2017-11-08T15:30:43.241Z,10.48
2017-11-08T15:33:10.832Z,11.80
2017-11-08T15:35:38.425Z,10.52
2017-11-08T15:38:06.013Z,10.20
2017-11-08T15:40:33.603Z,9.50
2017-11-08T15:43:01.224Z,10.73
2017-11-08T15:45:28.828Z,10.65
2017-11-08T15:47:56.437Z,11.23
2017-11-08T15:50:24.785Z,11.10
2017-11-08T15:52:52.341Z,11.35
2017-11-08T15:55:19.919Z,9.65
2017-11-08T15:57:47.494Z,10.45
2017-11-08T16:00:15.061Z,10.30
2017-11-08T16:02:43.538Z,11.05
2017-11-08T16:05:12.253Z,11.68
2017-11-08T16:07:40.591Z,11.65
2017-11-08T16:10:08.209Z,10.63
2017-11-08T16:12:38.131Z,10.70
2017-11-08T16:15:05.908Z,11.12
2017-11-08T16:17:39.202Z,11.48
2017-11-08T16:20:20.707Z,11.35
2017-11-08T16:22:49.125Z,10.68
2017-11-08T16:25:17.815Z,11.82
2017-11-08T16:27:49.655Z,10.57
2017-11-08T16:30:21.647Z,10.18
2017-11-08T16:32:52.703Z,10.60
2017-11-08T16:35:23.474Z,10.60
2017-11-08T16:37:53.790Z,10.52
2017-11-08T16:40:25.330Z,11.93
2017-11-08T16:42:55.447Z,9.90
2017-11-08T16:45:25.185Z,10.73
2017-11-08T16:47:54.453Z,10.10
2017-11-08T16:50:25.884Z,10.82
2017-11-08T16:56:14.330Z,10.93
2017-11-08T16:58:45.479Z,10.52
2017-11-08T17:01:26.108Z,10.98
2017-11-08T17:03:55.497Z,10.63
2017-11-08T17:06:23.471Z,10.43
2017-11-08T17:08:51.902Z,9.75
2017-11-08T17:11:22.568Z,10.93
2017-11-08T17:13:56.028Z,10.43
2017-11-08T17:16:26.714Z,11.48
2017-11-08T17:18:56.570Z,11.75
2017-11-08T17:21:25.951Z,10.60
2017-11-08T17:23:58.653Z,10.60
2017-11-08T17:26:27.636Z,11.35
2017-11-08T17:28:57.050Z,14.50
2017-11-08T17:34:04.469Z,11.30
2017-11-08T17:36:36.423Z,11.23
2017-11-08T17:41:44.309Z,11.48
2017-11-08T17:44:16.298Z,10.40
2017-11-08T17:46:48.077Z,11.20
2017-11-08T17:52:44.549Z,11.12
2017-11-08T17:57:56.866Z,10.60
2017-11-08T18:00:29.413Z,11.32
2017-11-08T18:02:59.513Z,11.38
2017-11-08T18:05:31.164Z,11.00
2017-11-08T18:08:04.362Z,10.55
2017-11-08T18:10:38.060Z,10.95
2017-11-08T18:13:17.999Z,11.70
2017-11-08T18:15:51.300Z,10.45
2017-11-08T18:18:23.515Z,10.30
2017-11-08T18:20:55.514Z,11.48
2017-11-08T18:26:17.178Z,11.98
2017-11-08T18:28:52.023Z,11.20
2017-11-08T18:31:23.598Z,11.27
2017-11-08T18:33:56.623Z,11.40
2017-11-08T18:36:52.757Z,11.52
2017-11-08T18:39:49.949Z,12.27
2017-11-08T18:42:23.280Z,12.60
2017-11-08T18:44:57.766Z,12.23
2017-11-08T18:53:41.597Z,11.77
2017-11-08T18:56:13.281Z,12.25
2017-11-08T18:59:21.184Z,12.75
2017-11-08T19:02:18.381Z,12.95
2017-11-08T19:04:49.885Z,12.00
2017-11-08T19:07:19.568Z,12.70
2017-11-08T19:13:34.455Z,11.63
2017-11-08T22:19:11.755Z,16.60
2017-11-08T22:21:39.340Z,17.90
2017-11-08T22:24:06.897Z,18.17
2017-11-08T22:26:35.260Z,17.98
2017-11-08T22:29:02.819Z,19.17
2017-11-08T22:31:30.378Z,18.48
2017-11-08T22:33:57.953Z,18.45
2017-11-08T22:36:25.630Z,18.60
2017-11-08T22:38:53.194Z,20.30
2017-11-08T22:41:20.777Z,18.48
2017-11-08T22:43:49.091Z,19.65
2017-11-08T22:46:16.666Z,18.67
2017-11-08T22:48:44.201Z,19.10
2017-11-08T22:51:11.812Z,18.55
2017-11-08T22:53:39.384Z,18.85
2017-11-08T22:56:06.947Z,19.30
2017-11-08T22:58:34.485Z,18.02
2017-11-08T23:01:02.091Z,21.23
2017-11-08T23:03:29.626Z,20.05
2017-11-08T23:05:57.198Z,18.10
2017-11-08T23:08:24.766Z,18.35
2017-11-08T23:10:52.316Z,18.50
2017-11-08T23:13:19.864Z,19.58
2017-11-08T23:15:47.404Z,17.60
2017-11-08T23:18:15.040Z,18.23
2017-11-08T23:20:42.620Z,18.42
2017-11-08T23:23:10.988Z,18.42
2017-11-08T23:25:38.563Z,20.50
2017-11-08T23:28:06.891Z,16.85
2017-11-08T23:30:34.464Z,17.60
2017-11-08T23:33:02.057Z,20.02
2017-11-08T23:35:29.858Z,18.67
2017-11-08T23:37:58.180Z,20.25
2017-11-08T23:40:25.771Z,19.35
2017-11-08T23:42:53.321Z,20.30
2017-11-08T23:45:20.861Z,19.92
2017-11-08T23:47:48.449Z,18.65
2017-11-08T23:50:16.011Z,18.98
2017-11-08T23:52:43.603Z,19.35
2017-11-08T23:55:11.138Z,18.58
2017-11-08T23:57:38.703Z,19.55
